Flight Track Log - Related Links

Times and Time Zones

All times are in EDT time to prevent confusion due to time zone crossing. See the UAL4422 flight status page for this flight to view local times or setup timezone preferences in your user account.


Time Position Orientation Groundspeed Altitude Reporting Facility
EDT Latitude Longitude Course Direction KTS MPH feet Rate Location/Type
Mon 04:32:33 PM 29.9594 -95.3414 276° West 150 173 800  Level Houston Center
Mon 04:33:41 PM 29.9167 -95.3781 217° Southwest 218 251 2,800 1,818 Climbing Houston Center
Mon 04:34:12 PM 29.8992 -95.4053 233° Southwest 212 244 3,800 2,164 Climbing Houston Center
Mon 04:34:42 PM 29.8761 -95.4406 233° Southwest 235 270 5,000 2,032 Climbing Houston Center
Mon 04:35:00 PM 30.0188 -95.6688 277° West  Level FlightAware Approximate
Mon 04:35:14 PM 29.8631 -95.4692 242° Southwest 236 272 5,900  Level Houston Center
Mon 04:35:43 PM 29.8783 -95.5128 292° West 284 327 6,800 2,032 Climbing Houston Center
Mon 04:36:00 PM 30.0312 -95.7810 277° West  Level FlightAware Approximate
Mon 04:36:16 PM 29.9031 -95.5383 318° Northwest 269 310 8,000  Level Houston Center
Mon 04:36:44 PM 29.9322 -95.5736 314° West 267 307 9,200 1,935 Climbing Houston Center
Mon 04:37:00 PM 30.0412 -95.8936 276° West  Level FlightAware Approximate
Mon 04:37:18 PM 29.9564 -95.5986 318° Northwest 269 310 10,000  Level Houston Center
Mon 04:38:20 PM 29.9828 -95.6833 290° West 281 323 11,200 1,065 Climbing Houston Center
Mon 04:39:22 PM 30.0103 -95.8011 285° West 317 365 12,200 1,008 Climbing Houston Center
Mon 04:40:25 PM 30.0347 -95.9061 285° West 336 387 13,300 1,056 Climbing Houston Center
Mon 04:41:27 PM 30.0586 -96.0114 285° West 340 391 14,400 1,065 Climbing Houston Center
Mon 04:42:29 PM 30.0814 -96.1308 282° West 345 397 15,500 1,065 Climbing Houston Center
Mon 04:43:31 PM 30.0978 -96.2397 280° West 347 399 16,600 1,065 Climbing Houston Center
Mon 04:44:33 PM 30.1147 -96.3489 280° West 347 399 17,700 1,210 Climbing Houston Center
Mon 04:45:35 PM 30.1319 -96.4603 280° West 350 403 19,100 1,306 Climbing Houston Center
Mon 04:46:37 PM 30.1489 -96.5708 280° West 346 398 20,400 1,452 Climbing Houston Center
Mon 04:47:39 PM 30.1683 -96.7014 280° West 349 402 22,100 1,440 Climbing Houston Center
Mon 04:48:42 PM 30.1861 -96.8086 281° West 340 391 23,400 1,104 Climbing Houston Center
Mon 04:49:44 PM 30.2011 -96.9211 279° West 345 397 24,400 1,065 Climbing Houston Center
Mon 04:50:46 PM 30.2178 -97.0331 280° West 349 402 25,600 1,210 Climbing Houston Center
Mon 04:51:48 PM 30.2339 -97.1422 280° West 343 395 26,900 1,113 Climbing Houston Center
Mon 04:52:50 PM 30.2506 -97.2525 280° West 343 395 27,900 968 Climbing Houston Center
Mon 04:53:52 PM 30.2664 -97.3650 279° West 346 398 28,900 968 Climbing Houston Center
Mon 04:54:54 PM 30.2822 -97.4767 279° West 349 402 29,900 1,016 Climbing Houston Center
Mon 04:55:56 PM 30.3011 -97.6081 279° West 349 402 31,000 1,008 Climbing Houston Center
Mon 04:56:59 PM 30.3175 -97.7242 279° West 357 411 32,000 1,152 Climbing Houston Center
Mon 04:58:01 PM 30.3347 -97.8392 280° West 358 412 33,400 968 Climbing Houston Center
Mon 04:59:03 PM 30.3503 -97.9517 279° West 353 406 34,000 290 Climbing Houston Center
Mon 05:00:05 PM 30.3681 -98.0711 280° West 367 422 34,000  Level Houston Center
Mon 05:01:07 PM 30.4161 -98.1922 295° West 401 461 34,000  Level Houston Center
Mon 05:02:09 PM 30.4653 -98.3128 295° West 408 470 34,000  Level Houston Center
Mon 05:03:11 PM 30.5133 -98.4339 295° West 409 471 34,000  Level Houston Center
Mon 05:04:13 PM 30.5681 -98.5736 294° West 404 465 34,000  Level Houston Center
Mon 05:05:15 PM 30.6178 -98.6942 296° West 407 468 34,000  Level Houston Center
Mon 05:06:17 PM 30.6656 -98.8139 295° West 405 466 34,000 336 Level Houston Center
Mon 05:07:20 PM 30.7133 -98.9333 295° West 404 465 34,700 960 Climbing Houston Center
Mon 05:08:22 PM 30.7578 -99.0464 295° West 385 443 36,000 581 Climbing Houston Center
Mon 05:09:24 PM 30.8047 -99.1692 294° West 385 443 35,900 -48 Descending Houston Center
Mon 05:10:26 PM 30.8514 -99.2864 295° West 397 457 35,900 48 Level Houston Center
Mon 05:11:28 PM 30.8964 -99.4022 294° West 395 455 36,000 48 Climbing Houston Center
Mon 05:12:30 PM 30.9400 -99.5150 294° West 388 447 36,000  Level Houston Center
Mon 05:13:32 PM 30.9942 -99.6525 295° West 389 448 36,000  Level Houston Center
Mon 05:14:34 PM 31.0375 -99.7692 293° West 393 452 36,000  Level Houston Center
Mon 05:15:36 PM 31.0822 -99.8853 294° West 393 452 36,000  Level Houston Center
Mon 05:16:38 PM 31.1267 -100.0017 294° West 394 453 36,000  Level Houston Center
Mon 05:17:41 PM 31.1725 -100.1178 295° West 395 455 36,000  Level Houston Center
Mon 05:18:43 PM 31.2261 -100.2606 294° West 400 460 36,000  Level Houston Center
Mon 05:19:45 PM 31.2717 -100.3778 294° West 390 449 36,000 -194 Level Houston Center
Mon 05:20:47 PM 31.3150 -100.4981 293° West 405 466 35,600 -1,113 Descending Houston Center
Mon 05:21:49 PM 31.3603 -100.6153 294° West 404 465 33,700 -1,984 Descending Houston Center
Mon 05:22:51 PM 31.4072 -100.7381 294° West 394 453 31,500 -2,213 Descending Fort Worth Center
Mon 05:23:51 PM 31.4500 -100.8589 293° West 394 453 29,200 -2,350 Descending Fort Worth Center
Mon 05:24:51 PM 31.4928 -100.9750 293° West 394 453 26,800 -2,450 Descending Fort Worth Center
Mon 05:25:51 PM 31.5392 -101.0964 294° West 399 459 24,300 -2,700 Descending Fort Worth Center
Mon 05:26:51 PM 31.5858 -101.2200 294° West 399 459 21,400 -2,750 Descending Fort Worth Center
Mon 05:27:51 PM 31.6322 -101.3367 295° West 399 459 18,800 -2,450 Descending Fort Worth Center
Mon 05:28:51 PM 31.6725 -101.4506 293° West 387 445 16,500 -2,450 Descending Fort Worth Center
Mon 05:29:51 PM 31.7150 -101.5525 296° West 367 422 13,900 -2,550 Descending Fort Worth Center
Mon 05:30:51 PM 31.7578 -101.6497 297° West 353 406 11,400 -2,000 Descending Fort Worth Center
Mon 05:31:51 PM 31.7964 -101.7394 297° West 327 376 9,900 -1,550 Descending Fort Worth Center
Mon 05:32:51 PM 31.8333 -101.8169 299° West 298 343 8,300 -1,600 Descending Fort Worth Center
Mon 05:33:51 PM 31.8703 -101.8994 298° West 277 319 6,700 -1,600 Descending Fort Worth Center
Mon 05:34:51 PM 31.8883 -101.9764 285° West 255 293 5,100 -1,600 Descending Fort Worth Center

Login

Don't have an account? Register now (free) for customized features, flight alerts, and more!